sensor_id;sensor_type;location;lat;lon;timestamp;pressure;altitude;pressure_sealevel;temperature;humidity
51603;BME280;37954;51.980;5.850;2023-04-26T00:01:10;101560.06;;;4.54;71.89
51603;BME280;37954;51.980;5.850;2023-04-26T00:05:24;101560.41;;;4.59;71.87
51603;BME280;37954;51.980;5.850;2023-04-26T00:09:35;101565.53;;;4.52;72.14
51603;BME280;37954;51.980;5.850;2023-04-26T00:13:47;101557.41;;;4.46;72.11
51603;BME280;37954;51.980;5.850;2023-04-26T00:17:59;101572.69;;;4.52;72.33
51603;BME280;37954;51.980;5.850;2023-04-26T00:22:11;101566.69;;;4.42;72.00
51603;BME280;37954;51.980;5.850;2023-04-26T00:26:23;101562.53;;;4.39;72.56
51603;BME280;37954;51.980;5.850;2023-04-26T00:30:35;101570.34;;;4.41;72.31
51603;BME280;37954;51.980;5.850;2023-04-26T00:34:53;101563.84;;;4.35;72.50
51603;BME280;37954;51.980;5.850;2023-04-26T00:39:04;101552.50;;;4.17;72.99
51603;BME280;37954;51.980;5.850;2023-04-26T00:43:16;101567.50;;;4.26;73.27
51603;BME280;37954;51.980;5.850;2023-04-26T00:47:28;101554.50;;;4.15;72.83
51603;BME280;37954;51.980;5.850;2023-04-26T00:51:43;101574.63;;;4.26;73.12
51603;BME280;37954;51.980;5.850;2023-04-26T00:55:55;101560.47;;;4.17;73.43
51603;BME280;37954;51.980;5.850;2023-04-26T01:00:08;101543.81;;;4.07;73.86
51603;BME280;37954;51.980;5.850;2023-04-26T01:04:20;101549.31;;;4.05;73.52
51603;BME280;37954;51.980;5.850;2023-04-26T01:08:36;101554.16;;;4.10;73.92
51603;BME280;37954;51.980;5.850;2023-04-26T01:12:48;101555.28;;;4.07;73.67
51603;BME280;37954;51.980;5.850;2023-04-26T01:17:02;101553.41;;;4.00;73.88
51603;BME280;37954;51.980;5.850;2023-04-26T01:21:19;101581.03;;;4.07;73.87
51603;BME280;37954;51.980;5.850;2023-04-26T01:25:32;101559.72;;;3.91;74.22
51603;BME280;37954;51.980;5.850;2023-04-26T01:29:45;101557.34;;;3.79;73.69
51603;BME280;37954;51.980;5.850;2023-04-26T01:33:57;101577.63;;;3.80;74.61
51603;BME280;37954;51.980;5.850;2023-04-26T01:38:09;101556.63;;;3.69;74.06
51603;BME280;37954;51.980;5.850;2023-04-26T01:42:21;101564.59;;;3.69;74.69
51603;BME280;37954;51.980;5.850;2023-04-26T01:46:33;101567.22;;;3.61;74.67
51603;BME280;37954;51.980;5.850;2023-04-26T01:50:45;101565.16;;;3.55;74.91
51603;BME280;37954;51.980;5.850;2023-04-26T01:54:56;101554.69;;;3.45;75.20
51603;BME280;37954;51.980;5.850;2023-04-26T01:59:10;101570.28;;;3.48;75.21
51603;BME280;37954;51.980;5.850;2023-04-26T02:03:22;101563.41;;;3.38;75.30
51603;BME280;37954;51.980;5.850;2023-04-26T02:07:34;101574.03;;;3.38;75.33
51603;BME280;37954;51.980;5.850;2023-04-26T02:11:45;101575.69;;;3.39;75.93
51603;BME280;37954;51.980;5.850;2023-04-26T02:15:57;101563.19;;;3.31;75.91
51603;BME280;37954;51.980;5.850;2023-04-26T02:20:10;101568.31;;;3.25;75.87
51603;BME280;37954;51.980;5.850;2023-04-26T02:24:25;101572.63;;;3.26;75.99
51603;BME280;37954;51.980;5.850;2023-04-26T02:28:37;101562.63;;;3.20;76.48
51603;BME280;37954;51.980;5.850;2023-04-26T02:32:49;101565.72;;;3.15;76.10
51603;BME280;37954;51.980;5.850;2023-04-26T02:37:03;101569.69;;;3.11;76.23
51603;BME280;37954;51.980;5.850;2023-04-26T02:41:16;101571.53;;;3.10;76.27
51603;BME280;37954;51.980;5.850;2023-04-26T02:45:27;101552.19;;;3.00;76.85
51603;BME280;37954;51.980;5.850;2023-04-26T02:49:39;101566.97;;;3.03;76.54
51603;BME280;37954;51.980;5.850;2023-04-26T02:53:51;101559.31;;;3.00;76.46
51603;BME280;37954;51.980;5.850;2023-04-26T02:58:02;101548.94;;;2.89;76.41
51603;BME280;37954;51.980;5.850;2023-04-26T03:02:14;101562.06;;;2.90;76.81
51603;BME280;37954;51.980;5.850;2023-04-26T03:06:26;101558.19;;;2.85;76.85
51603;BME280;37954;51.980;5.850;2023-04-26T03:10:39;101554.16;;;2.80;77.08
51603;BME280;37954;51.980;5.850;2023-04-26T03:14:52;101548.13;;;2.70;77.46
51603;BME280;37954;51.980;5.850;2023-04-26T03:19:04;101547.97;;;2.72;76.95
51603;BME280;37954;51.980;5.850;2023-04-26T03:23:15;101563.06;;;2.71;77.02
51603;BME280;37954;51.980;5.850;2023-04-26T03:27:27;101549.84;;;2.62;77.25
51603;BME280;37954;51.980;5.850;2023-04-26T03:31:39;101552.06;;;2.66;77.56
51603;BME280;37954;51.980;5.850;2023-04-26T03:35:51;101562.81;;;2.65;77.60
51603;BME280;37954;51.980;5.850;2023-04-26T03:40:03;101547.00;;;2.55;77.76
51603;BME280;37954;51.980;5.850;2023-04-26T03:44:18;101543.94;;;2.50;77.78
51603;BME280;37954;51.980;5.850;2023-04-26T03:48:30;101547.28;;;2.52;77.67
51603;BME280;37954;51.980;5.850;2023-04-26T03:52:42;101538.09;;;2.47;78.11
51603;BME280;37954;51.980;5.850;2023-04-26T03:56:54;101530.38;;;2.35;78.06
51603;BME280;37954;51.980;5.850;2023-04-26T04:01:06;101521.44;;;2.36;78.11
51603;BME280;37954;51.980;5.850;2023-04-26T04:05:18;101532.44;;;2.41;78.19
51603;BME280;37954;51.980;5.850;2023-04-26T04:09:30;101540.69;;;2.38;78.11
51603;BME280;37954;51.980;5.850;2023-04-26T04:13:42;101561.97;;;2.47;78.38
51603;BME280;37954;51.980;5.850;2023-04-26T04:17:54;101534.31;;;2.31;78.02
51603;BME280;37954;51.980;5.850;2023-04-26T04:22:05;101538.47;;;2.34;78.44
51603;BME280;37954;51.980;5.850;2023-04-26T04:26:18;101540.84;;;2.37;78.63
51603;BME280;37954;51.980;5.850;2023-04-26T04:30:31;101538.25;;;2.45;78.75
51603;BME280;37954;51.980;5.850;2023-04-26T04:34:44;101523.94;;;2.38;79.00
51603;BME280;37954;51.980;5.850;2023-04-26T04:38:59;101537.38;;;2.54;78.99
51603;BME280;37954;51.980;5.850;2023-04-26T04:43:10;101546.91;;;2.65;79.31
51603;BME280;37954;51.980;5.850;2023-04-26T04:47:23;101536.16;;;2.66;79.17
51603;BME280;37954;51.980;5.850;2023-04-26T04:51:35;101548.50;;;2.75;79.08
51603;BME280;37954;51.980;5.850;2023-04-26T04:55:47;101573.72;;;2.97;78.93
51603;BME280;37954;51.980;5.850;2023-04-26T05:00:00;101537.19;;;2.91;79.38
51603;BME280;37954;51.980;5.850;2023-04-26T05:04:25;101567.00;;;3.29;79.11
51603;BME280;37954;51.980;5.850;2023-04-26T05:08:37;101546.59;;;3.55;79.88
51603;BME280;37954;51.980;5.850;2023-04-26T05:12:53;101564.09;;;4.08;79.79
51603;BME280;37954;51.980;5.850;2023-04-26T05:17:06;101572.25;;;4.89;79.95
51603;BME280;37954;51.980;5.850;2023-04-26T05:21:18;101580.47;;;5.83;79.65
51603;BME280;37954;51.980;5.850;2023-04-26T05:25:31;101575.13;;;7.59;78.64
51603;BME280;37954;51.980;5.850;2023-04-26T05:29:52;101594.53;;;9.41;76.96
51603;BME280;37954;51.980;5.850;2023-04-26T05:34:28;101592.06;;;10.57;74.22
51603;BME280;37954;51.980;5.850;2023-04-26T05:38:41;101569.41;;;11.58;68.46
51603;BME280;37954;51.980;5.850;2023-04-26T05:42:53;101570.97;;;12.05;66.24
51603;BME280;37954;51.980;5.850;2023-04-26T05:47:06;101598.28;;;12.15;65.74
51603;BME280;37954;51.980;5.850;2023-04-26T05:51:19;101580.03;;;12.17;63.30
51603;BME280;37954;51.980;5.850;2023-04-26T05:55:31;101596.47;;;11.96;61.68
51603;BME280;37954;51.980;5.850;2023-04-26T05:59:43;101605.13;;;12.18;62.63
51603;BME280;37954;51.980;5.850;2023-04-26T06:03:55;101580.97;;;13.12;61.70
51603;BME280;37954;51.980;5.850;2023-04-26T06:08:15;101592.47;;;14.12;58.94
51603;BME280;37954;51.980;5.850;2023-04-26T06:12:27;101601.41;;;14.79;56.80
51603;BME280;37954;51.980;5.850;2023-04-26T06:16:42;101601.19;;;15.34;54.27
51603;BME280;37954;51.980;5.850;2023-04-26T06:20:54;101615.56;;;16.16;52.69
51603;BME280;37954;51.980;5.850;2023-04-26T06:25:07;101622.94;;;17.01;51.35
51603;BME280;37954;51.980;5.850;2023-04-26T06:29:20;101589.25;;;17.30;48.77
51603;BME280;37954;51.980;5.850;2023-04-26T06:33:32;101595.34;;;17.21;46.67
51603;BME280;37954;51.980;5.850;2023-04-26T06:37:45;101607.16;;;16.98;46.83
51603;BME280;37954;51.980;5.850;2023-04-26T06:41:58;101599.59;;;16.31;46.22
51603;BME280;37954;51.980;5.850;2023-04-26T06:46:30;101602.03;;;15.46;47.22
51603;BME280;37954;51.980;5.850;2023-04-26T06:50:42;101596.84;;;14.91;48.00
51603;BME280;37954;51.980;5.850;2023-04-26T06:54:54;101610.91;;;15.00;48.62
51603;BME280;37954;51.980;5.850;2023-04-26T06:59:08;101580.66;;;14.61;48.15
51603;BME280;37954;51.980;5.850;2023-04-26T07:03:20;101602.56;;;15.13;48.63
51603;BME280;37954;51.980;5.850;2023-04-26T07:07:35;101623.09;;;15.44;47.29
51603;BME280;37954;51.980;5.850;2023-04-26T07:11:47;101626.03;;;15.43;45.90
51603;BME280;37954;51.980;5.850;2023-04-26T07:15:59;101631.16;;;15.62;45.86
51603;BME280;37954;51.980;5.850;2023-04-26T07:20:11;101615.50;;;15.88;45.45
51603;BME280;37954;51.980;5.850;2023-04-26T07:24:23;101603.03;;;15.75;44.24
51603;BME280;37954;51.980;5.850;2023-04-26T07:28:36;101626.53;;;15.98;43.47
51603;BME280;37954;51.980;5.850;2023-04-26T07:32:48;101625.38;;;16.06;43.40
51603;BME280;37954;51.980;5.850;2023-04-26T07:37:01;101607.72;;;15.80;42.63
51603;BME280;37954;51.980;5.850;2023-04-26T07:41:12;101620.06;;;15.99;43.06
51603;BME280;37954;51.980;5.850;2023-04-26T07:45:27;101605.81;;;16.04;43.04
51603;BME280;37954;51.980;5.850;2023-04-26T07:49:38;101623.25;;;15.96;42.93
51603;BME280;37954;51.980;5.850;2023-04-26T07:53:51;101607.72;;;15.80;43.31
51603;BME280;37954;51.980;5.850;2023-04-26T07:58:03;101599.94;;;15.60;43.19
51603;BME280;37954;51.980;5.850;2023-04-26T08:02:15;101598.13;;;15.30;43.10
51603;BME280;37954;51.980;5.850;2023-04-26T08:06:27;101622.84;;;14.92;43.17
51603;BME280;37954;51.980;5.850;2023-04-26T08:10:40;101622.38;;;14.84;42.22
51603;BME280;37954;51.980;5.850;2023-04-26T08:14:52;101629.56;;;14.90;41.86
51603;BME280;37954;51.980;5.850;2023-04-26T08:19:04;101614.00;;;14.55;41.72
51603;BME280;37954;51.980;5.850;2023-04-26T08:23:16;101644.13;;;14.41;42.19
51603;BME280;37954;51.980;5.850;2023-04-26T08:27:30;101620.50;;;14.18;42.75
51603;BME280;37954;51.980;5.850;2023-04-26T08:31:42;101634.81;;;14.18;43.31
51603;BME280;37954;51.980;5.850;2023-04-26T08:35:54;101624.28;;;14.95;43.34
51603;BME280;37954;51.980;5.850;2023-04-26T08:40:07;101647.28;;;15.04;42.44
51603;BME280;37954;51.980;5.850;2023-04-26T08:44:23;101642.22;;;14.23;42.46
51603;BME280;37954;51.980;5.850;2023-04-26T08:48:35;101644.94;;;13.62;43.09
51603;BME280;37954;51.980;5.850;2023-04-26T08:52:49;101632.41;;;13.17;43.68
51603;BME280;37954;51.980;5.850;2023-04-26T08:57:02;101632.97;;;12.88;44.32
51603;BME280;37954;51.980;5.850;2023-04-26T09:01:14;101623.69;;;12.46;45.61
51603;BME280;37954;51.980;5.850;2023-04-26T09:05:28;101610.06;;;12.21;45.80
51603;BME280;37954;51.980;5.850;2023-04-26T09:09:47;101623.84;;;12.51;46.50
51603;BME280;37954;51.980;5.850;2023-04-26T09:14:00;101581.25;;;12.66;46.63
51603;BME280;37954;51.980;5.850;2023-04-26T09:18:19;101623.13;;;13.07;45.69
51603;BME280;37954;51.980;5.850;2023-04-26T09:22:33;101622.84;;;13.21;45.37
51603;BME280;37954;51.980;5.850;2023-04-26T09:26:45;101637.94;;;13.29;44.95
51603;BME280;37954;51.980;5.850;2023-04-26T09:30:57;101622.03;;;13.14;45.18
51603;BME280;37954;51.980;5.850;2023-04-26T09:35:32;101614.69;;;12.97;45.28
51603;BME280;37954;51.980;5.850;2023-04-26T09:39:44;101613.22;;;12.63;45.72
51603;BME280;37954;51.980;5.850;2023-04-26T09:43:56;101594.25;;;12.44;46.12
51603;BME280;37954;51.980;5.850;2023-04-26T09:48:28;101615.97;;;12.49;46.69
51603;BME280;37954;51.980;5.850;2023-04-26T09:52:44;101622.88;;;12.32;47.14
51603;BME280;37954;51.980;5.850;2023-04-26T09:56:59;101598.09;;;12.10;47.60
51603;BME280;37954;51.980;5.850;2023-04-26T10:01:16;101610.31;;;12.13;47.95
51603;BME280;37954;51.980;5.850;2023-04-26T10:05:31;101631.78;;;12.39;48.28
51603;BME280;37954;51.980;5.850;2023-04-26T10:09:45;101629.22;;;12.51;47.56
51603;BME280;37954;51.980;5.850;2023-04-26T10:13:57;101615.97;;;12.49;47.53
51603;BME280;37954;51.980;5.850;2023-04-26T10:18:09;101615.47;;;12.66;47.03
51603;BME280;37954;51.980;5.850;2023-04-26T10:22:23;101596.69;;;12.84;46.84
51603;BME280;37954;51.980;5.850;2023-04-26T10:49:21;101607.03;;;12.55;45.75
51603;BME280;37954;51.980;5.850;2023-04-26T10:53:58;101606.50;;;12.34;46.08
51603;BME280;37954;51.980;5.850;2023-04-26T10:58:30;101630.75;;;12.34;46.55
51603;BME280;37954;51.980;5.850;2023-04-26T11:07:12;101613.81;;;12.27;47.16
51603;BME280;37954;51.980;5.850;2023-04-26T11:11:25;101616.03;;;12.36;47.00
51603;BME280;37954;51.980;5.850;2023-04-26T11:15:39;101595.31;;;12.30;46.69
51603;BME280;37954;51.980;5.850;2023-04-26T11:19:51;101603.16;;;12.38;45.78
51603;BME280;37954;51.980;5.850;2023-04-26T11:24:07;101580.81;;;12.31;45.57
51603;BME280;37954;51.980;5.850;2023-04-26T11:28:25;101608.47;;;12.58;45.69
51603;BME280;37954;51.980;5.850;2023-04-26T11:32:56;101580.44;;;12.66;45.65
51603;BME280;37954;51.980;5.850;2023-04-26T11:37:39;101605.09;;;13.01;45.24
51603;BME280;37954;51.980;5.850;2023-04-26T11:41:55;101590.75;;;13.07;45.15
51603;BME280;37954;51.980;5.850;2023-04-26T11:46:19;101567.47;;;13.12;44.88
51603;BME280;37954;51.980;5.850;2023-04-26T11:50:36;101593.22;;;13.40;44.14
51603;BME280;37954;51.980;5.850;2023-04-26T11:54:49;101591.16;;;13.60;43.05
51603;BME280;37954;51.980;5.850;2023-04-26T11:59:01;101599.97;;;14.10;42.98
51603;BME280;37954;51.980;5.850;2023-04-26T12:03:13;101594.72;;;14.52;41.84
51603;BME280;37954;51.980;5.850;2023-04-26T12:07:33;101582.03;;;14.82;41.42
51603;BME280;37954;51.980;5.850;2023-04-26T12:11:55;101590.84;;;14.89;40.17
51603;BME280;37954;51.980;5.850;2023-04-26T12:16:11;101587.72;;;14.62;40.62
51603;BME280;37954;51.980;5.850;2023-04-26T12:20:39;101603.75;;;14.76;40.79
51603;BME280;37954;51.980;5.850;2023-04-26T12:25:03;101598.59;;;14.56;40.72
51603;BME280;37954;51.980;5.850;2023-04-26T12:35:14;101562.81;;;13.87;41.68
51603;BME280;37954;51.980;5.850;2023-04-26T12:39:26;101599.59;;;13.88;41.75
51603;BME280;37954;51.980;5.850;2023-04-26T12:43:38;101580.88;;;13.69;41.95
51603;BME280;37954;51.980;5.850;2023-04-26T12:47:50;101587.28;;;13.74;42.33
51603;BME280;37954;51.980;5.850;2023-04-26T12:52:02;101608.06;;;13.74;41.95
51603;BME280;37954;51.980;5.850;2023-04-26T12:56:14;101600.91;;;13.61;42.21
51603;BME280;37954;51.980;5.850;2023-04-26T13:00:26;101597.09;;;13.69;42.23
51603;BME280;37954;51.980;5.850;2023-04-26T13:04:38;101592.28;;;13.71;41.57
51603;BME280;37954;51.980;5.850;2023-04-26T13:08:52;101593.16;;;13.89;41.01
51603;BME280;37954;51.980;5.850;2023-04-26T13:13:04;101587.75;;;13.89;40.96
51603;BME280;37954;51.980;5.850;2023-04-26T13:17:16;101596.00;;;14.13;40.72
51603;BME280;37954;51.980;5.850;2023-04-26T13:21:34;101576.56;;;14.04;40.39
51603;BME280;37954;51.980;5.850;2023-04-26T13:25:56;101586.63;;;14.15;40.84
51603;BME280;37954;51.980;5.850;2023-04-26T13:30:36;101573.94;;;13.98;40.65
51603;BME280;37954;51.980;5.850;2023-04-26T13:35:07;101564.03;;;13.91;40.91
51603;BME280;37954;51.980;5.850;2023-04-26T13:40:21;101564.13;;;13.85;41.21
51603;BME280;37954;51.980;5.850;2023-04-26T13:45:10;101565.00;;;13.79;41.01
51603;BME280;37954;51.980;5.850;2023-04-26T13:50:05;101571.63;;;13.83;41.53
51603;BME280;37954;51.980;5.850;2023-04-26T14:05:55;101570.88;;;13.94;40.78
51603;BME280;37954;51.980;5.850;2023-04-26T14:10:24;101581.97;;;14.04;40.29
51603;BME280;37954;51.980;5.850;2023-04-26T14:14:59;101574.09;;;13.84;40.58
51603;BME280;37954;51.980;5.850;2023-04-26T14:20:00;101594.63;;;13.67;40.51
51603;BME280;37954;51.980;5.850;2023-04-26T14:25:33;101595.09;;;13.39;41.01
51603;BME280;37954;51.980;5.850;2023-04-26T14:30:16;101571.75;;;12.95;41.42
51603;BME280;37954;51.980;5.850;2023-04-26T14:34:47;101591.91;;;12.86;42.00
51603;BME280;37954;51.980;5.850;2023-04-26T14:40:25;101593.44;;;13.07;42.17
51603;BME280;37954;51.980;5.850;2023-04-26T14:45:23;101555.50;;;12.77;42.46
51603;BME280;37954;51.980;5.850;2023-04-26T14:50:04;101577.28;;;12.75;41.70
51603;BME280;37954;51.980;5.850;2023-04-26T14:59:07;101564.75;;;12.49;42.20
51603;BME280;37954;51.980;5.850;2023-04-26T15:03:20;101553.03;;;12.31;42.58
51603;BME280;37954;51.980;5.850;2023-04-26T15:07:39;101579.00;;;12.63;42.00
51603;BME280;37954;51.980;5.850;2023-04-26T15:12:02;101539.84;;;12.61;42.06
51603;BME280;37954;51.980;5.850;2023-04-26T15:16:16;101561.28;;;12.80;41.27
51603;BME280;37954;51.980;5.850;2023-04-26T15:20:28;101547.41;;;12.77;41.52
51603;BME280;37954;51.980;5.850;2023-04-26T15:29:52;101573.56;;;13.01;41.64
51603;BME280;37954;51.980;5.850;2023-04-26T15:34:07;101582.63;;;13.13;41.56
51603;BME280;37954;51.980;5.850;2023-04-26T15:38:20;101574.66;;;12.94;41.53
51603;BME280;37954;51.980;5.850;2023-04-26T15:42:38;101538.28;;;12.78;41.92
51603;BME280;37954;51.980;5.850;2023-04-26T15:47:00;101546.97;;;12.80;42.14
51603;BME280;37954;51.980;5.850;2023-04-26T15:51:13;101579.53;;;12.78;42.68
51603;BME280;37954;51.980;5.850;2023-04-26T15:55:24;101575.34;;;12.82;42.86
51603;BME280;37954;51.980;5.850;2023-04-26T15:59:36;101574.59;;;12.69;42.96
51603;BME280;37954;51.980;5.850;2023-04-26T16:03:48;101568.66;;;12.60;43.49
51603;BME280;37954;51.980;5.850;2023-04-26T16:08:01;101576.00;;;12.46;43.51
51603;BME280;37954;51.980;5.850;2023-04-26T16:12:14;101583.59;;;12.56;44.04
51603;BME280;37954;51.980;5.850;2023-04-26T16:16:25;101587.13;;;12.57;43.90
51603;BME280;37954;51.980;5.850;2023-04-26T16:20:37;101583.47;;;12.44;43.81
51603;BME280;37954;51.980;5.850;2023-04-26T16:24:49;101583.06;;;12.41;44.06
51603;BME280;37954;51.980;5.850;2023-04-26T16:29:01;101587.84;;;12.39;44.16
51603;BME280;37954;51.980;5.850;2023-04-26T16:33:14;101556.22;;;12.21;44.18
51603;BME280;37954;51.980;5.850;2023-04-26T16:37:26;101593.66;;;12.36;44.27
51603;BME280;37954;51.980;5.850;2023-04-26T16:41:38;101574.22;;;12.27;44.06
51603;BME280;37954;51.980;5.850;2023-04-26T16:46:00;101569.66;;;12.28;43.96
51603;BME280;37954;51.980;5.850;2023-04-26T16:50:13;101581.63;;;12.38;43.83
51603;BME280;37954;51.980;5.850;2023-04-26T16:54:25;101595.50;;;12.42;43.75
51603;BME280;37954;51.980;5.850;2023-04-26T16:58:37;101583.72;;;12.30;43.52
51603;BME280;37954;51.980;5.850;2023-04-26T17:02:48;101557.72;;;12.10;43.72
51603;BME280;37954;51.980;5.850;2023-04-26T17:07:01;101582.53;;;12.12;43.54
51603;BME280;37954;51.980;5.850;2023-04-26T17:11:14;101588.59;;;12.08;43.73
51603;BME280;37954;51.980;5.850;2023-04-26T17:15:26;101598.28;;;12.15;44.19
51603;BME280;37954;51.980;5.850;2023-04-26T17:19:38;101591.44;;;12.13;44.61
51603;BME280;37954;51.980;5.850;2023-04-26T17:23:50;101590.47;;;12.01;44.34
51603;BME280;37954;51.980;5.850;2023-04-26T17:28:03;101572.91;;;11.85;44.70
51603;BME280;37954;51.980;5.850;2023-04-26T17:32:15;101588.22;;;11.84;44.39
51603;BME280;37954;51.980;5.850;2023-04-26T17:36:27;101559.03;;;11.62;44.23
51603;BME280;37954;51.980;5.850;2023-04-26T17:40:39;101548.31;;;11.48;44.06
51603;BME280;37954;51.980;5.850;2023-04-26T17:44:51;101567.13;;;11.48;44.33
51603;BME280;37954;51.980;5.850;2023-04-26T17:49:03;101589.91;;;11.59;44.65
51603;BME280;37954;51.980;5.850;2023-04-26T17:53:14;101605.44;;;11.50;45.15
51603;BME280;37954;51.980;5.850;2023-04-26T17:57:26;101591.16;;;11.30;45.36
51603;BME280;37954;51.980;5.850;2023-04-26T18:01:38;101595.69;;;11.16;45.79
51603;BME280;37954;51.980;5.850;2023-04-26T18:05:50;101605.84;;;11.14;46.27
51603;BME280;37954;51.980;5.850;2023-04-26T18:10:02;101619.28;;;11.08;46.06
51603;BME280;37954;51.980;5.850;2023-04-26T18:14:14;101610.56;;;10.93;46.34
51603;BME280;37954;51.980;5.850;2023-04-26T18:18:26;101616.97;;;10.85;47.30
51603;BME280;37954;51.980;5.850;2023-04-26T18:22:39;101607.22;;;10.71;47.54
51603;BME280;37954;51.980;5.850;2023-04-26T18:26:50;101621.88;;;10.75;47.63
51603;BME280;37954;51.980;5.850;2023-04-26T18:31:02;101622.25;;;10.59;47.79
51603;BME280;37954;51.980;5.850;2023-04-26T18:35:16;101624.31;;;10.57;48.19
51603;BME280;37954;51.980;5.850;2023-04-26T18:39:28;101623.03;;;10.46;48.83
51603;BME280;37954;51.980;5.850;2023-04-26T18:43:40;101619.66;;;10.31;49.67
51603;BME280;37954;51.980;5.850;2023-04-26T18:47:52;101631.84;;;10.27;49.96
51603;BME280;37954;51.980;5.850;2023-04-26T18:52:05;101631.34;;;10.17;50.16
51603;BME280;37954;51.980;5.850;2023-04-26T18:56:19;101634.63;;;10.12;50.54
51603;BME280;37954;51.980;5.850;2023-04-26T19:00:31;101635.84;;;10.09;50.96
51603;BME280;37954;51.980;5.850;2023-04-26T19:04:42;101638.91;;;10.06;51.40
51603;BME280;37954;51.980;5.850;2023-04-26T19:08:54;101643.56;;;9.91;51.67
51603;BME280;37954;51.980;5.850;2023-04-26T19:13:06;101645.41;;;9.84;52.15
51603;BME280;37954;51.980;5.850;2023-04-26T19:17:18;101645.34;;;9.77;52.44
51603;BME280;37954;51.980;5.850;2023-04-26T19:21:30;101628.66;;;9.54;52.76
51603;BME280;37954;51.980;5.850;2023-04-26T19:25:42;101644.75;;;9.54;53.08
51603;BME280;37954;51.980;5.850;2023-04-26T19:29:54;101647.84;;;9.51;53.06
51603;BME280;37954;51.980;5.850;2023-04-26T19:34:07;101662.28;;;9.50;53.57
51603;BME280;37954;51.980;5.850;2023-04-26T19:38:19;101662.00;;;9.45;53.57
51603;BME280;37954;51.980;5.850;2023-04-26T19:42:31;101640.25;;;9.33;53.71
51603;BME280;37954;51.980;5.850;2023-04-26T19:46:43;101662.31;;;9.35;53.93
51603;BME280;37954;51.980;5.850;2023-04-26T19:50:54;101665.00;;;9.35;54.05
51603;BME280;37954;51.980;5.850;2023-04-26T19:55:06;101670.78;;;9.32;54.60
51603;BME280;37954;51.980;5.850;2023-04-26T19:59:20;101674.41;;;9.25;55.01
51603;BME280;37954;51.980;5.850;2023-04-26T20:03:34;101663.38;;;9.13;54.96
51603;BME280;37954;51.980;5.850;2023-04-26T20:07:48;101667.16;;;9.04;54.92
51603;BME280;37954;51.980;5.850;2023-04-26T20:12:12;101684.91;;;9.05;55.42
51603;BME280;37954;51.980;5.850;2023-04-26T20:16:26;101667.16;;;8.83;55.27
51603;BME280;37954;51.980;5.850;2023-04-26T20:20:38;101683.44;;;8.81;55.65
51603;BME280;37954;51.980;5.850;2023-04-26T20:24:49;101681.50;;;8.75;55.61
51603;BME280;37954;51.980;5.850;2023-04-26T20:29:01;101692.75;;;8.70;56.32
51603;BME280;37954;51.980;5.850;2023-04-26T20:33:16;101693.63;;;8.56;56.25
51603;BME280;37954;51.980;5.850;2023-04-26T20:37:28;101688.28;;;8.42;56.47
51603;BME280;37954;51.980;5.850;2023-04-26T20:41:40;101685.69;;;8.33;57.20
51603;BME280;37954;51.980;5.850;2023-04-26T20:45:52;101677.81;;;8.17;57.28
51603;BME280;37954;51.980;5.850;2023-04-26T20:50:05;101693.78;;;8.11;57.56
51603;BME280;37954;51.980;5.850;2023-04-26T20:54:16;101690.81;;;7.91;57.81
51603;BME280;37954;51.980;5.850;2023-04-26T20:58:28;101687.38;;;7.82;57.99
51603;BME280;37954;51.980;5.850;2023-04-26T21:02:40;101675.81;;;7.67;58.25
51603;BME280;37954;51.980;5.850;2023-04-26T21:06:52;101675.31;;;7.49;58.71
51603;BME280;37954;51.980;5.850;2023-04-26T21:11:04;101704.50;;;7.58;58.77
51603;BME280;37954;51.980;5.850;2023-04-26T21:15:16;101694.84;;;7.49;59.45
51603;BME280;37954;51.980;5.850;2023-04-26T21:19:28;101683.09;;;7.36;59.44
51603;BME280;37954;51.980;5.850;2023-04-26T21:23:40;101691.00;;;7.29;59.51
51603;BME280;37954;51.980;5.850;2023-04-26T21:27:51;101678.22;;;7.16;59.98
51603;BME280;37954;51.980;5.850;2023-04-26T21:32:03;101698.78;;;7.16;60.72
51603;BME280;37954;51.980;5.850;2023-04-26T21:36:15;101700.97;;;7.12;60.69
51603;BME280;37954;51.980;5.850;2023-04-26T21:40:27;101681.00;;;7.00;60.59
51603;BME280;37954;51.980;5.850;2023-04-26T21:44:38;101703.22;;;7.01;61.17
51603;BME280;37954;51.980;5.850;2023-04-26T21:48:50;101679.94;;;6.86;61.53
51603;BME280;37954;51.980;5.850;2023-04-26T21:53:02;101692.47;;;6.86;61.82
51603;BME280;37954;51.980;5.850;2023-04-26T21:57:14;101713.47;;;6.89;62.13
51603;BME280;37954;51.980;5.850;2023-04-26T22:01:26;101722.16;;;6.91;62.07
51603;BME280;37954;51.980;5.850;2023-04-26T22:05:38;101670.53;;;6.59;61.98
51603;BME280;37954;51.980;5.850;2023-04-26T22:09:49;101695.22;;;6.70;62.50
51603;BME280;37954;51.980;5.850;2023-04-26T22:14:01;101695.91;;;6.63;62.40
51603;BME280;37954;51.980;5.850;2023-04-26T22:18:13;101676.44;;;6.47;62.55
51603;BME280;37954;51.980;5.850;2023-04-26T22:22:25;101702.63;;;6.51;62.58
51603;BME280;37954;51.980;5.850;2023-04-26T22:26:37;101699.81;;;6.45;62.89
51603;BME280;37954;51.980;5.850;2023-04-26T22:30:49;101704.31;;;6.44;63.48
51603;BME280;37954;51.980;5.850;2023-04-26T22:35:00;101705.69;;;6.40;63.68
51603;BME280;37954;51.980;5.850;2023-04-26T22:39:13;101711.34;;;6.37;63.85
51603;BME280;37954;51.980;5.850;2023-04-26T22:43:24;101701.53;;;6.29;63.89
51603;BME280;37954;51.980;5.850;2023-04-26T22:47:36;101698.69;;;6.31;64.20
51603;BME280;37954;51.980;5.850;2023-04-26T22:51:48;101714.69;;;6.31;64.36
51603;BME280;37954;51.980;5.850;2023-04-26T22:56:17;101707.03;;;6.28;64.65
51603;BME280;37954;51.980;5.850;2023-04-26T23:00:29;101713.91;;;6.22;64.18
51603;BME280;37954;51.980;5.850;2023-04-26T23:04:41;101718.75;;;6.19;64.42
51603;BME280;37954;51.980;5.850;2023-04-26T23:08:53;101726.44;;;6.06;64.53
51603;BME280;37954;51.980;5.850;2023-04-26T23:13:04;101691.09;;;5.79;64.54
51603;BME280;37954;51.980;5.850;2023-04-26T23:17:16;101737.28;;;5.96;65.16